»·PEaware :: N106AZ KTUS-KPHX

N106AZ :: KTUS-KPHX

FLIGHT INFORMATION

Flight Status: Arrived
Operator: Privately registered:
United States
More flights under this callsign
Pilot: Spencer F. (32151)
Aircraft: Diamond DA-62
(DA62)
More flights by this aircraft type
Origin: KTUS Tucson Intl
United States
Destination: KPHX Phoenix Sky Harbor Intl
United States
More flights between these airports :: More routes between these airports
Route: +
File this flight plan on PilotEdge
Remarks:
Altitude:
(Current/Filed)
6,500ft
Speed:
(Current/Filed)
124kts
Departed: 28-Oct-20 07:45 PM
Arrived: 28-Oct-20 08:38 PM
Distance/Time
Traveled:
96nm/0:52
Distance/Time
To Go:
Arrived

Flight Plot

Page will automatically refresh every two minutes.

Flight plan parsing failed; only flown route is shown


Map Options




Map Legend


Flown Route
Filed Route
Departure Airport
Arrival Airport
Navaid (VOR, NDB)
Fix

Horizontal Profiles

Position Reports

Time Latitude Longitude Heading Altitude Ground
Speed
28-Oct-20 19:32 32.129128 -110.941647 224 2574ft 0kts
28-Oct-20 19:33 32.129128 -110.941647 224 2574ft 0kts
28-Oct-20 19:34 32.129128 -110.941647 224 2574ft 0kts
28-Oct-20 19:35 32.129128 -110.941647 224 2574ft 0kts
28-Oct-20 19:36 32.129128 -110.941647 224 2574ft 0kts
28-Oct-20 19:37 32.129128 -110.941647 224 2574ft 0kts
28-Oct-20 19:38 32.129128 -110.941647 224 2574ft 0kts
28-Oct-20 19:39 32.129128 -110.941647 224 2574ft 0kts
28-Oct-20 19:40 32.129243 -110.942467 241 2573ft 10kts
28-Oct-20 19:41 32.125502 -110.946789 226 2574ft 19kts
28-Oct-20 19:42 32.123847 -110.947189 223 2583ft 0kts
28-Oct-20 19:43 32.123847 -110.947189 223 2583ft 0kts
28-Oct-20 19:44 32.121669 -110.945866 135 2592ft 55kts
28-Oct-20 19:45 32.098106 -110.918692 136 3068ft 147kts
28-Oct-20 19:46 32.063543 -110.886927 145 3739ft 159kts
28-Oct-20 19:47 32.026867 -110.857014 146 4535ft 156kts
28-Oct-20 19:48 31.990249 -110.830620 155 5694ft 140kts
28-Oct-20 19:49 31.992003 -110.783866 63 6232ft 171kts
28-Oct-20 19:50 32.022900 -110.766598 355 6600ft 168kts
28-Oct-20 19:51 32.022900 -110.766598 355 6600ft 168kts
28-Oct-20 19:52 32.044484 -110.778613 324 6402ft 181kts
28-Oct-20 19:53 32.132220 -110.890162 303 6343ft 169kts
28-Oct-20 19:54 32.158661 -110.936232 303 6343ft 169kts
28-Oct-20 19:55 32.185236 -110.982231 303 6343ft 169kts
28-Oct-20 19:56 32.215573 -111.024343 322 6343ft 170kts
28-Oct-20 19:57 32.254428 -111.056269 324 6343ft 170kts
28-Oct-20 19:58 32.293215 -111.088351 323 6343ft 170kts
28-Oct-20 19:59 32.331879 -111.120486 323 6343ft 170kts
28-Oct-20 20:01 32.370590 -111.152880 323 6344ft 170kts
28-Oct-20 20:02 32.409167 -111.185210 323 6343ft 170kts
28-Oct-20 20:03 32.447865 -111.217680 323 6343ft 170kts
28-Oct-20 20:04 32.486681 -111.250268 323 6343ft 170kts
28-Oct-20 20:05 32.525297 -111.282714 323 6343ft 170kts
28-Oct-20 20:06 32.563962 -111.315202 323 6343ft 170kts
28-Oct-20 20:07 32.602715 -111.347753 323 6327ft 171kts
28-Oct-20 20:08 32.641489 -111.380290 323 6324ft 170kts
28-Oct-20 20:09 32.680099 -111.412790 323 6325ft 170kts
28-Oct-20 20:10 32.719019 -111.445382 323 6323ft 170kts
28-Oct-20 20:11 32.757329 -111.477513 323 6324ft 170kts
28-Oct-20 20:12 32.796511 -111.510414 323 6324ft 170kts
28-Oct-20 20:13 32.835216 -111.542866 323 6325ft 170kts
28-Oct-20 20:14 32.874002 -111.575380 323 6324ft 170kts
28-Oct-20 20:14 32.906039 -111.602238 323 6324ft 170kts
28-Oct-20 20:16 32.951462 -111.640328 324 6324ft 170kts
28-Oct-20 20:16 32.983761 -111.667365 323 6325ft 170kts
28-Oct-20 20:18 33.029088 -111.705327 324 6322ft 170kts
28-Oct-20 20:18 33.061414 -111.732413 323 6324ft 170kts
28-Oct-20 20:20 33.106679 -111.770348 324 6325ft 170kts
28-Oct-20 20:20 33.138757 -111.797159 324 6324ft 170kts
28-Oct-20 20:21 33.177453 -111.829540 324 6388ft 169kts
28-Oct-20 20:22 33.216246 -111.862023 323 6389ft 170kts
28-Oct-20 20:23 33.252032 -111.898419 298 6389ft 169kts
28-Oct-20 20:24 33.271877 -111.949194 293 6389ft 169kts
28-Oct-20 20:25 33.296385 -111.997183 304 6389ft 169kts
28-Oct-20 20:26 33.316690 -112.043480 257 5809ft 142kts
28-Oct-20 20:27 33.312028 -112.090673 265 4549ft 135kts
28-Oct-20 20:28 33.319411 -112.136133 300 3327ft 128kts
28-Oct-20 20:29 33.343654 -112.177135 304 3385ft 162kts
28-Oct-20 20:30 33.371115 -112.220798 310 3036ft 155kts
28-Oct-20 20:31 33.405263 -112.247355 351 1854ft 145kts
28-Oct-20 20:32 33.423684 -112.224182 94 1754ft 136kts
28-Oct-20 20:33 33.423990 -112.177457 91 1957ft 137kts
28-Oct-20 20:34 33.427128 -112.135061 87 2039ft 125kts
28-Oct-20 20:35 33.428750 -112.091509 88 1948ft 149kts
28-Oct-20 20:36 33.429001 -112.045689 92 1445ft 111kts
28-Oct-20 20:37 33.429400 -112.021230 290 1114ft 13kts
28-Oct-20 20:38 33.429807 -112.021528 40 1114ft 0kts
28-Oct-20 20:39 33.429807 -112.021528 40 1114ft 0kts
28-Oct-20 20:40 33.427714 -112.021117 86 1115ft 18kts
28-Oct-20 20:41 33.427160 -112.016165 145 1124ft 0kts

Navigation Log

Ident Type
Flight plan parsing failed, navigation log unavailable